sensor_id;sensor_type;location;lat;lon;timestamp;temperature;humidity
34406;DHT22;20658;45.630;8.886;2023-02-28T00:01:27;3.90;92.60
34406;DHT22;20658;45.630;8.886;2023-02-28T00:04:01;3.80;92.80
34406;DHT22;20658;45.630;8.886;2023-02-28T00:06:34;3.80;93.20
34406;DHT22;20658;45.630;8.886;2023-02-28T00:09:07;3.80;93.70
34406;DHT22;20658;45.630;8.886;2023-02-28T00:11:42;3.80;94.00
34406;DHT22;20658;45.630;8.886;2023-02-28T00:14:16;3.80;94.30
34406;DHT22;20658;45.630;8.886;2023-02-28T00:16:49;3.70;94.30
34406;DHT22;20658;45.630;8.886;2023-02-28T00:19:22;3.70;94.90
34406;DHT22;20658;45.630;8.886;2023-02-28T00:21:55;3.70;95.20
34406;DHT22;20658;45.630;8.886;2023-02-28T00:24:29;3.70;95.50
34406;DHT22;20658;45.630;8.886;2023-02-28T00:27:03;3.70;95.90
34406;DHT22;20658;45.630;8.886;2023-02-28T00:29:37;3.70;96.20
34406;DHT22;20658;45.630;8.886;2023-02-28T00:32:11;3.60;96.60
34406;DHT22;20658;45.630;8.886;2023-02-28T00:34:44;3.60;97.10
34406;DHT22;20658;45.630;8.886;2023-02-28T00:37:17;3.60;97.50
34406;DHT22;20658;45.630;8.886;2023-02-28T00:39:50;3.50;98.30
34406;DHT22;20658;45.630;8.886;2023-02-28T00:42:25;3.60;98.50
34406;DHT22;20658;45.630;8.886;2023-02-28T00:44:59;3.60;98.50
34406;DHT22;20658;45.630;8.886;2023-02-28T00:47:32;3.70;98.80
34406;DHT22;20658;45.630;8.886;2023-02-28T00:50:08;3.60;99.10
34406;DHT22;20658;45.630;8.886;2023-02-28T00:52:42;3.50;99.50
34406;DHT22;20658;45.630;8.886;2023-02-28T00:55:15;3.50;99.80
34406;DHT22;20658;45.630;8.886;2023-02-28T00:57:52;3.50;99.90
34406;DHT22;20658;45.630;8.886;2023-02-28T01:00:25;3.50;99.90
34406;DHT22;20658;45.630;8.886;2023-02-28T01:02:53;3.50;99.90
34406;DHT22;20658;45.630;8.886;2023-02-28T01:05:27;3.50;99.90
34406;DHT22;20658;45.630;8.886;2023-02-28T01:08:00;3.60;99.90
34406;DHT22;20658;45.630;8.886;2023-02-28T01:10:34;3.50;99.90
34406;DHT22;20658;45.630;8.886;2023-02-28T01:13:09;3.50;99.90
34406;DHT22;20658;45.630;8.886;2023-02-28T01:15:48;3.50;99.90
34406;DHT22;20658;45.630;8.886;2023-02-28T01:18:24;3.50;99.90
34406;DHT22;20658;45.630;8.886;2023-02-28T01:20:57;3.50;99.90
34406;DHT22;20658;45.630;8.886;2023-02-28T01:23:30;3.50;99.90
34406;DHT22;20658;45.630;8.886;2023-02-28T01:26:05;3.50;99.90
34406;DHT22;20658;45.630;8.886;2023-02-28T01:28:40;3.50;99.90
34406;DHT22;20658;45.630;8.886;2023-02-28T01:31:10;3.50;99.90
34406;DHT22;20658;45.630;8.886;2023-02-28T01:33:44;3.40;99.90
34406;DHT22;20658;45.630;8.886;2023-02-28T01:36:15;3.50;99.90
34406;DHT22;20658;45.630;8.886;2023-02-28T01:38:50;3.50;99.90
34406;DHT22;20658;45.630;8.886;2023-02-28T01:41:26;3.40;99.90
34406;DHT22;20658;45.630;8.886;2023-02-28T01:44:05;3.40;99.90
34406;DHT22;20658;45.630;8.886;2023-02-28T01:46:40;3.40;99.90
34406;DHT22;20658;45.630;8.886;2023-02-28T01:49:15;3.50;99.90
34406;DHT22;20658;45.630;8.886;2023-02-28T01:51:54;3.40;99.90
34406;DHT22;20658;45.630;8.886;2023-02-28T01:54:31;3.40;99.90
34406;DHT22;20658;45.630;8.886;2023-02-28T01:57:11;3.40;99.90
34406;DHT22;20658;45.630;8.886;2023-02-28T01:59:51;3.40;99.90
34406;DHT22;20658;45.630;8.886;2023-02-28T02:02:23;3.40;99.90
34406;DHT22;20658;45.630;8.886;2023-02-28T02:04:55;3.40;99.90
34406;DHT22;20658;45.630;8.886;2023-02-28T02:07:35;3.40;99.90
34406;DHT22;20658;45.630;8.886;2023-02-28T02:10:14;3.30;99.90
34406;DHT22;20658;45.630;8.886;2023-02-28T02:13:01;3.30;99.90
34406;DHT22;20658;45.630;8.886;2023-02-28T02:15:52;3.30;99.90
34406;DHT22;20658;45.630;8.886;2023-02-28T02:18:35;3.30;99.90
34406;DHT22;20658;45.630;8.886;2023-02-28T02:28:11;3.20;99.90
34406;DHT22;20658;45.630;8.886;2023-02-28T02:34:35;3.30;99.90
34406;DHT22;20658;45.630;8.886;2023-02-28T02:37:31;3.30;99.90
34406;DHT22;20658;45.630;8.886;2023-02-28T02:40:12;3.30;99.90
34406;DHT22;20658;45.630;8.886;2023-02-28T02:42:51;3.30;99.90
34406;DHT22;20658;45.630;8.886;2023-02-28T02:45:32;3.20;99.90
34406;DHT22;20658;45.630;8.886;2023-02-28T02:48:11;3.20;99.90
34406;DHT22;20658;45.630;8.886;2023-02-28T02:50:54;3.20;99.90
34406;DHT22;20658;45.630;8.886;2023-02-28T02:53:39;3.20;99.90
34406;DHT22;20658;45.630;8.886;2023-02-28T02:56:11;3.20;99.90
34406;DHT22;20658;45.630;8.886;2023-02-28T02:58:48;3.10;99.90
34406;DHT22;20658;45.630;8.886;2023-02-28T03:01:25;3.10;99.90
34406;DHT22;20658;45.630;8.886;2023-02-28T03:03:58;3.10;99.90
34406;DHT22;20658;45.630;8.886;2023-02-28T03:06:35;3.20;99.90
34406;DHT22;20658;45.630;8.886;2023-02-28T03:09:09;3.20;99.90
34406;DHT22;20658;45.630;8.886;2023-02-28T03:11:42;3.10;99.90
34406;DHT22;20658;45.630;8.886;2023-02-28T03:14:30;3.30;99.90
34406;DHT22;20658;45.630;8.886;2023-02-28T03:17:29;3.10;99.90
34406;DHT22;20658;45.630;8.886;2023-02-28T03:20:16;3.50;99.90
34406;DHT22;20658;45.630;8.886;2023-02-28T03:23:03;3.10;99.90
34406;DHT22;20658;45.630;8.886;2023-02-28T03:25:54;3.10;99.90
34406;DHT22;20658;45.630;8.886;2023-02-28T03:28:34;3.10;99.90
34406;DHT22;20658;45.630;8.886;2023-02-28T03:31:13;3.10;99.90
34406;DHT22;20658;45.630;8.886;2023-02-28T03:33:53;3.10;99.90
34406;DHT22;20658;45.630;8.886;2023-02-28T03:36:30;3.00;99.90
34406;DHT22;20658;45.630;8.886;2023-02-28T03:39:13;3.00;99.90
34406;DHT22;20658;45.630;8.886;2023-02-28T03:41:53;3.00;99.90
34406;DHT22;20658;45.630;8.886;2023-02-28T03:44:30;3.00;99.90
34406;DHT22;20658;45.630;8.886;2023-02-28T03:47:10;3.00;99.90
34406;DHT22;20658;45.630;8.886;2023-02-28T03:49:50;3.10;99.90
34406;DHT22;20658;45.630;8.886;2023-02-28T03:52:31;3.00;99.90
34406;DHT22;20658;45.630;8.886;2023-02-28T03:55:10;3.10;99.90
34406;DHT22;20658;45.630;8.886;2023-02-28T03:57:53;3.20;99.90
34406;DHT22;20658;45.630;8.886;2023-02-28T04:00:34;3.10;99.90
34406;DHT22;20658;45.630;8.886;2023-02-28T04:03:10;3.60;99.90
34406;DHT22;20658;45.630;8.886;2023-02-28T04:05:50;3.10;99.90
34406;DHT22;20658;45.630;8.886;2023-02-28T04:08:24;3.10;99.90
34406;DHT22;20658;45.630;8.886;2023-02-28T04:11:02;3.10;99.90
34406;DHT22;20658;45.630;8.886;2023-02-28T04:13:32;3.10;99.90
34406;DHT22;20658;45.630;8.886;2023-02-28T04:16:01;3.10;99.90
34406;DHT22;20658;45.630;8.886;2023-02-28T04:18:43;3.20;99.90
34406;DHT22;20658;45.630;8.886;2023-02-28T04:21:16;3.20;99.90
34406;DHT22;20658;45.630;8.886;2023-02-28T04:23:47;3.20;99.90
34406;DHT22;20658;45.630;8.886;2023-02-28T04:26:22;3.20;99.90
34406;DHT22;20658;45.630;8.886;2023-02-28T04:28:56;3.20;99.90
34406;DHT22;20658;45.630;8.886;2023-02-28T04:31:29;3.10;99.90
34406;DHT22;20658;45.630;8.886;2023-02-28T04:34:03;3.10;99.90
34406;DHT22;20658;45.630;8.886;2023-02-28T04:36:36;3.10;99.90
34406;DHT22;20658;45.630;8.886;2023-02-28T04:39:09;3.10;99.90
34406;DHT22;20658;45.630;8.886;2023-02-28T04:41:44;3.10;99.90
34406;DHT22;20658;45.630;8.886;2023-02-28T04:44:17;3.20;99.90
34406;DHT22;20658;45.630;8.886;2023-02-28T04:46:48;3.10;99.90
34406;DHT22;20658;45.630;8.886;2023-02-28T04:49:22;3.10;99.90
34406;DHT22;20658;45.630;8.886;2023-02-28T04:51:55;3.10;99.90
34406;DHT22;20658;45.630;8.886;2023-02-28T04:54:29;3.10;99.90
34406;DHT22;20658;45.630;8.886;2023-02-28T04:56:58;3.00;99.90
34406;DHT22;20658;45.630;8.886;2023-02-28T04:59:34;3.10;99.90
34406;DHT22;20658;45.630;8.886;2023-02-28T05:02:07;3.10;99.10
34406;DHT22;20658;45.630;8.886;2023-02-28T05:04:40;3.00;98.90
34406;DHT22;20658;45.630;8.886;2023-02-28T05:07:14;3.00;98.90
34406;DHT22;20658;45.630;8.886;2023-02-28T05:09:47;3.10;98.80
34406;DHT22;20658;45.630;8.886;2023-02-28T05:12:22;3.00;98.20
34406;DHT22;20658;45.630;8.886;2023-02-28T05:14:55;3.00;97.90
34406;DHT22;20658;45.630;8.886;2023-02-28T05:17:28;3.00;97.50
34406;DHT22;20658;45.630;8.886;2023-02-28T05:20:02;3.20;97.40
34406;DHT22;20658;45.630;8.886;2023-02-28T05:22:36;3.00;97.30
34406;DHT22;20658;45.630;8.886;2023-02-28T05:25:13;3.10;97.40
34406;DHT22;20658;45.630;8.886;2023-02-28T05:27:50;3.10;97.20
34406;DHT22;20658;45.630;8.886;2023-02-28T05:30:24;3.10;97.20
34406;DHT22;20658;45.630;8.886;2023-02-28T05:32:57;3.10;96.30
34406;DHT22;20658;45.630;8.886;2023-02-28T05:35:31;3.10;95.90
34406;DHT22;20658;45.630;8.886;2023-02-28T05:38:04;3.00;95.40
34406;DHT22;20658;45.630;8.886;2023-02-28T05:40:38;3.10;95.60
34406;DHT22;20658;45.630;8.886;2023-02-28T05:43:13;3.10;95.40
34406;DHT22;20658;45.630;8.886;2023-02-28T05:45:46;3.00;95.30
34406;DHT22;20658;45.630;8.886;2023-02-28T05:48:20;3.00;95.20
34406;DHT22;20658;45.630;8.886;2023-02-28T05:50:53;3.00;95.10
34406;DHT22;20658;45.630;8.886;2023-02-28T05:53:26;3.10;94.80
34406;DHT22;20658;45.630;8.886;2023-02-28T05:56:00;3.10;94.50
34406;DHT22;20658;45.630;8.886;2023-02-28T05:58:35;3.10;94.30
34406;DHT22;20658;45.630;8.886;2023-02-28T06:01:30;3.10;94.40
34406;DHT22;20658;45.630;8.886;2023-02-28T06:04:06;3.10;94.50
34406;DHT22;20658;45.630;8.886;2023-02-28T06:06:41;3.20;94.80
34406;DHT22;20658;45.630;8.886;2023-02-28T06:09:14;3.20;95.20
34406;DHT22;20658;45.630;8.886;2023-02-28T06:11:48;3.20;95.00
34406;DHT22;20658;45.630;8.886;2023-02-28T06:14:23;3.40;94.10
34406;DHT22;20658;45.630;8.886;2023-02-28T06:16:56;3.10;94.00
34406;DHT22;20658;45.630;8.886;2023-02-28T06:19:29;3.10;93.60
34406;DHT22;20658;45.630;8.886;2023-02-28T06:22:02;3.20;93.80
34406;DHT22;20658;45.630;8.886;2023-02-28T06:24:36;3.20;94.00
34406;DHT22;20658;45.630;8.886;2023-02-28T06:27:09;3.20;94.00
34406;DHT22;20658;45.630;8.886;2023-02-28T06:29:44;3.20;93.70
34406;DHT22;20658;45.630;8.886;2023-02-28T06:32:17;3.20;92.70
34406;DHT22;20658;45.630;8.886;2023-02-28T06:34:52;3.50;92.40
34406;DHT22;20658;45.630;8.886;2023-02-28T06:37:25;3.20;91.90
34406;DHT22;20658;45.630;8.886;2023-02-28T06:39:59;3.20;91.80
34406;DHT22;20658;45.630;8.886;2023-02-28T06:42:32;3.20;92.40
34406;DHT22;20658;45.630;8.886;2023-02-28T06:45:08;3.20;91.90
34406;DHT22;20658;45.630;8.886;2023-02-28T06:47:42;3.30;92.00
34406;DHT22;20658;45.630;8.886;2023-02-28T06:50:15;3.50;91.50
34406;DHT22;20658;45.630;8.886;2023-02-28T06:52:51;3.20;91.60
34406;DHT22;20658;45.630;8.886;2023-02-28T06:55:25;3.20;91.80
34406;DHT22;20658;45.630;8.886;2023-02-28T06:57:59;3.20;92.20
34406;DHT22;20658;45.630;8.886;2023-02-28T07:00:33;3.20;91.70
34406;DHT22;20658;45.630;8.886;2023-02-28T07:03:07;3.20;92.20
34406;DHT22;20658;45.630;8.886;2023-02-28T07:05:40;3.20;92.80
34406;DHT22;20658;45.630;8.886;2023-02-28T07:08:13;3.30;93.70
34406;DHT22;20658;45.630;8.886;2023-02-28T07:10:47;3.30;93.40
34406;DHT22;20658;45.630;8.886;2023-02-28T07:13:20;3.30;93.40
34406;DHT22;20658;45.630;8.886;2023-02-28T07:15:59;3.30;93.50
34406;DHT22;20658;45.630;8.886;2023-02-28T07:18:33;3.30;93.20
34406;DHT22;20658;45.630;8.886;2023-02-28T07:21:09;3.30;93.60
34406;DHT22;20658;45.630;8.886;2023-02-28T07:23:43;3.30;93.30
34406;DHT22;20658;45.630;8.886;2023-02-28T07:26:17;3.40;93.00
34406;DHT22;20658;45.630;8.886;2023-02-28T07:28:52;3.50;93.00
34406;DHT22;20658;45.630;8.886;2023-02-28T07:31:27;3.40;93.60
34406;DHT22;20658;45.630;8.886;2023-02-28T07:34:00;3.40;94.00
34406;DHT22;20658;45.630;8.886;2023-02-28T07:36:34;3.40;94.10
34406;DHT22;20658;45.630;8.886;2023-02-28T07:39:07;3.50;94.10
34406;DHT22;20658;45.630;8.886;2023-02-28T07:41:41;3.50;93.90
34406;DHT22;20658;45.630;8.886;2023-02-28T07:44:11;3.50;93.30
34406;DHT22;20658;45.630;8.886;2023-02-28T07:46:46;3.60;92.60
34406;DHT22;20658;45.630;8.886;2023-02-28T07:49:20;3.60;92.10
34406;DHT22;20658;45.630;8.886;2023-02-28T07:51:53;3.70;91.60
34406;DHT22;20658;45.630;8.886;2023-02-28T07:54:26;3.80;90.30
34406;DHT22;20658;45.630;8.886;2023-02-28T07:56:59;3.70;89.50
34406;DHT22;20658;45.630;8.886;2023-02-28T07:59:33;3.70;89.10
34406;DHT22;20658;45.630;8.886;2023-02-28T08:02:09;3.70;88.90
34406;DHT22;20658;45.630;8.886;2023-02-28T08:04:45;3.90;89.00
34406;DHT22;20658;45.630;8.886;2023-02-28T08:07:19;4.00;88.30
34406;DHT22;20658;45.630;8.886;2023-02-28T08:09:52;4.10;87.00
34406;DHT22;20658;45.630;8.886;2023-02-28T08:12:26;4.10;87.00
34406;DHT22;20658;45.630;8.886;2023-02-28T08:14:59;4.70;87.40
34406;DHT22;20658;45.630;8.886;2023-02-28T08:17:34;4.20;85.10
34406;DHT22;20658;45.630;8.886;2023-02-28T08:20:08;4.50;85.10
34406;DHT22;20658;45.630;8.886;2023-02-28T08:22:43;4.30;85.40
34406;DHT22;20658;45.630;8.886;2023-02-28T08:25:17;4.40;85.20
34406;DHT22;20658;45.630;8.886;2023-02-28T08:27:51;4.50;83.00
34406;DHT22;20658;45.630;8.886;2023-02-28T08:30:25;4.60;82.00
34406;DHT22;20658;45.630;8.886;2023-02-28T08:33:00;4.60;81.00
34406;DHT22;20658;45.630;8.886;2023-02-28T08:38:27;4.70;80.90
34406;DHT22;20658;45.630;8.886;2023-02-28T08:41:02;4.90;80.00
34406;DHT22;20658;45.630;8.886;2023-02-28T08:43:38;5.10;79.50
34406;DHT22;20658;45.630;8.886;2023-02-28T08:46:12;5.20;79.20
34406;DHT22;20658;45.630;8.886;2023-02-28T08:48:50;5.10;78.70
34406;DHT22;20658;45.630;8.886;2023-02-28T08:51:25;5.20;77.50
34406;DHT22;20658;45.630;8.886;2023-02-28T08:53:59;5.20;78.10
34406;DHT22;20658;45.630;8.886;2023-02-28T08:56:33;5.30;78.10
34406;DHT22;20658;45.630;8.886;2023-02-28T08:59:08;5.50;78.10
34406;DHT22;20658;45.630;8.886;2023-02-28T09:01:42;5.60;77.10
34406;DHT22;20658;45.630;8.886;2023-02-28T09:04:17;5.80;76.70
34406;DHT22;20658;45.630;8.886;2023-02-28T09:06:50;5.90;76.40
34406;DHT22;20658;45.630;8.886;2023-02-28T09:09:24;6.00;75.90
34406;DHT22;20658;45.630;8.886;2023-02-28T09:11:58;6.10;74.90
34406;DHT22;20658;45.630;8.886;2023-02-28T09:14:31;6.10;73.20
34406;DHT22;20658;45.630;8.886;2023-02-28T09:17:04;6.30;74.00
34406;DHT22;20658;45.630;8.886;2023-02-28T09:19:39;6.90;72.90
34406;DHT22;20658;45.630;8.886;2023-02-28T09:22:12;6.50;72.80
34406;DHT22;20658;45.630;8.886;2023-02-28T09:24:41;6.70;71.00
34406;DHT22;20658;45.630;8.886;2023-02-28T09:27:16;6.70;71.00
34406;DHT22;20658;45.630;8.886;2023-02-28T09:29:49;6.80;70.70
34406;DHT22;20658;45.630;8.886;2023-02-28T09:32:26;7.10;69.60
34406;DHT22;20658;45.630;8.886;2023-02-28T09:35:00;7.30;70.50
34406;DHT22;20658;45.630;8.886;2023-02-28T09:37:34;7.60;68.90
34406;DHT22;20658;45.630;8.886;2023-02-28T09:40:12;7.70;68.20
34406;DHT22;20658;45.630;8.886;2023-02-28T09:42:47;7.20;67.40
34406;DHT22;20658;45.630;8.886;2023-02-28T09:45:24;7.20;68.00
34406;DHT22;20658;45.630;8.886;2023-02-28T09:48:04;7.00;69.10
34406;DHT22;20658;45.630;8.886;2023-02-28T09:50:46;7.00;69.10
34406;DHT22;20658;45.630;8.886;2023-02-28T09:53:25;7.20;70.10
34406;DHT22;20658;45.630;8.886;2023-02-28T09:56:04;7.30;68.40
34406;DHT22;20658;45.630;8.886;2023-02-28T09:58:44;7.50;68.60
34406;DHT22;20658;45.630;8.886;2023-02-28T10:01:25;7.60;66.80
34406;DHT22;20658;45.630;8.886;2023-02-28T10:04:00;7.60;66.80
34406;DHT22;20658;45.630;8.886;2023-02-28T10:06:44;7.40;66.40
34406;DHT22;20658;45.630;8.886;2023-02-28T10:09:22;7.30;65.70
34406;DHT22;20658;45.630;8.886;2023-02-28T10:12:01;7.50;66.10
34406;DHT22;20658;45.630;8.886;2023-02-28T10:14:39;7.70;66.20
34406;DHT22;20658;45.630;8.886;2023-02-28T10:17:19;7.90;64.90
34406;DHT22;20658;45.630;8.886;2023-02-28T10:19:59;7.90;63.90
34406;DHT22;20658;45.630;8.886;2023-02-28T10:22:49;8.10;64.00
34406;DHT22;20658;45.630;8.886;2023-02-28T10:25:27;8.30;63.40
34406;DHT22;20658;45.630;8.886;2023-02-28T10:28:09;8.10;60.90
34406;DHT22;20658;45.630;8.886;2023-02-28T10:30:45;7.70;62.20
34406;DHT22;20658;45.630;8.886;2023-02-28T10:33:23;7.60;63.50
34406;DHT22;20658;45.630;8.886;2023-02-28T10:35:58;7.80;62.90
34406;DHT22;20658;45.630;8.886;2023-02-28T10:38:35;8.00;62.40
34406;DHT22;20658;45.630;8.886;2023-02-28T10:41:06;8.00;62.00
34406;DHT22;20658;45.630;8.886;2023-02-28T10:43:42;7.80;61.10
34406;DHT22;20658;45.630;8.886;2023-02-28T10:46:18;7.80;62.10
34406;DHT22;20658;45.630;8.886;2023-02-28T10:49:03;7.90;61.70
34406;DHT22;20658;45.630;8.886;2023-02-28T10:51:40;8.00;60.90
34406;DHT22;20658;45.630;8.886;2023-02-28T10:54:19;8.30;61.90
34406;DHT22;20658;45.630;8.886;2023-02-28T10:57:15;7.90;61.30
34406;DHT22;20658;45.630;8.886;2023-02-28T10:59:51;8.00;61.10
34406;DHT22;20658;45.630;8.886;2023-02-28T11:02:32;7.90;61.80
34406;DHT22;20658;45.630;8.886;2023-02-28T11:05:29;8.20;61.60
34406;DHT22;20658;45.630;8.886;2023-02-28T11:08:13;8.40;61.00
34406;DHT22;20658;45.630;8.886;2023-02-28T11:10:55;8.10;60.80
34406;DHT22;20658;45.630;8.886;2023-02-28T11:13:32;8.10;61.10
34406;DHT22;20658;45.630;8.886;2023-02-28T11:16:09;8.20;61.20
34406;DHT22;20658;45.630;8.886;2023-02-28T11:18:47;7.70;60.20
34406;DHT22;20658;45.630;8.886;2023-02-28T11:21:25;8.20;61.00
34406;DHT22;20658;45.630;8.886;2023-02-28T11:24:03;8.30;60.50
34406;DHT22;20658;45.630;8.886;2023-02-28T11:26:42;8.60;60.10
34406;DHT22;20658;45.630;8.886;2023-02-28T11:29:19;8.70;59.40
34406;DHT22;20658;45.630;8.886;2023-02-28T11:32:15;8.70;59.50
34406;DHT22;20658;45.630;8.886;2023-02-28T11:35:01;8.90;58.90
34406;DHT22;20658;45.630;8.886;2023-02-28T11:37:31;8.70;58.30
34406;DHT22;20658;45.630;8.886;2023-02-28T11:40:08;8.70;58.40
34406;DHT22;20658;45.630;8.886;2023-02-28T11:42:55;8.90;58.30
34406;DHT22;20658;45.630;8.886;2023-02-28T11:45:45;9.30;57.50
34406;DHT22;20658;45.630;8.886;2023-02-28T11:48:33;9.30;57.10
34406;DHT22;20658;45.630;8.886;2023-02-28T11:51:21;9.70;56.60
34406;DHT22;20658;45.630;8.886;2023-02-28T11:57:35;10.80;52.80
34406;DHT22;20658;45.630;8.886;2023-02-28T12:00:19;10.40;52.80
34406;DHT22;20658;45.630;8.886;2023-02-28T12:03:11;10.50;54.40
34406;DHT22;20658;45.630;8.886;2023-02-28T12:05:57;10.40;52.60
34406;DHT22;20658;45.630;8.886;2023-02-28T12:08:57;10.20;54.50
34406;DHT22;20658;45.630;8.886;2023-02-28T12:11:43;9.70;54.00
34406;DHT22;20658;45.630;8.886;2023-02-28T12:14:50;9.70;55.60
34406;DHT22;20658;45.630;8.886;2023-02-28T12:17:42;10.10;54.90
34406;DHT22;20658;45.630;8.886;2023-02-28T12:20:27;10.30;53.40
34406;DHT22;20658;45.630;8.886;2023-02-28T12:23:22;10.60;53.20
34406;DHT22;20658;45.630;8.886;2023-02-28T12:26:09;10.70;53.30
34406;DHT22;20658;45.630;8.886;2023-02-28T12:28:50;10.30;53.00
34406;DHT22;20658;45.630;8.886;2023-02-28T12:31:30;10.00;52.40
34406;DHT22;20658;45.630;8.886;2023-02-28T12:34:13;10.20;52.30
34406;DHT22;20658;45.630;8.886;2023-02-28T12:36:48;10.30;52.80
34406;DHT22;20658;45.630;8.886;2023-02-28T12:39:26;9.70;52.90
34406;DHT22;20658;45.630;8.886;2023-02-28T12:42:07;9.90;53.20
34406;DHT22;20658;45.630;8.886;2023-02-28T12:44:46;9.90;53.30
34406;DHT22;20658;45.630;8.886;2023-02-28T12:47:22;10.00;54.10
34406;DHT22;20658;45.630;8.886;2023-02-28T12:50:00;10.40;52.90
34406;DHT22;20658;45.630;8.886;2023-02-28T12:52:40;10.40;52.40
34406;DHT22;20658;45.630;8.886;2023-02-28T12:55:21;10.00;53.40
34406;DHT22;20658;45.630;8.886;2023-02-28T12:58:00;10.40;53.00
34406;DHT22;20658;45.630;8.886;2023-02-28T13:00:46;10.50;53.10
34406;DHT22;20658;45.630;8.886;2023-02-28T13:03:54;10.50;52.90
34406;DHT22;20658;45.630;8.886;2023-02-28T13:06:50;10.50;52.60
34406;DHT22;20658;45.630;8.886;2023-02-28T13:09:31;10.80;52.70
34406;DHT22;20658;45.630;8.886;2023-02-28T13:12:12;10.50;52.00
34406;DHT22;20658;45.630;8.886;2023-02-28T13:14:46;10.20;52.50
34406;DHT22;20658;45.630;8.886;2023-02-28T13:17:21;10.10;52.70
34406;DHT22;20658;45.630;8.886;2023-02-28T13:19:58;10.40;52.30
34406;DHT22;20658;45.630;8.886;2023-02-28T13:22:41;10.80;52.70
34406;DHT22;20658;45.630;8.886;2023-02-28T13:35:42;10.90;52.80
34406;DHT22;20658;45.630;8.886;2023-02-28T13:38:40;11.00;51.10
34406;DHT22;20658;45.630;8.886;2023-02-28T13:41:43;10.90;51.10
34406;DHT22;20658;45.630;8.886;2023-02-28T13:44:21;10.60;51.10
34406;DHT22;20658;45.630;8.886;2023-02-28T13:47:24;10.50;51.20
34406;DHT22;20658;45.630;8.886;2023-02-28T13:53:34;9.80;51.50
34406;DHT22;20658;45.630;8.886;2023-02-28T13:56:27;9.80;52.70
34406;DHT22;20658;45.630;8.886;2023-02-28T13:59:13;10.00;52.60
34406;DHT22;20658;45.630;8.886;2023-02-28T14:05:05;10.20;52.50
34406;DHT22;20658;45.630;8.886;2023-02-28T14:07:44;9.80;52.40
34406;DHT22;20658;45.630;8.886;2023-02-28T14:10:25;10.70;53.00
34406;DHT22;20658;45.630;8.886;2023-02-28T14:13:03;10.60;52.50
34406;DHT22;20658;45.630;8.886;2023-02-28T14:15:57;10.90;52.40
34406;DHT22;20658;45.630;8.886;2023-02-28T14:18:33;10.80;52.10
34406;DHT22;20658;45.630;8.886;2023-02-28T14:21:14;10.90;52.20
34406;DHT22;20658;45.630;8.886;2023-02-28T14:27:24;10.50;52.50
34406;DHT22;20658;45.630;8.886;2023-02-28T14:30:10;10.40;52.30
34406;DHT22;20658;45.630;8.886;2023-02-28T14:33:18;10.20;52.20
34406;DHT22;20658;45.630;8.886;2023-02-28T14:36:07;10.00;52.00
34406;DHT22;20658;45.630;8.886;2023-02-28T14:38:47;10.10;52.50
34406;DHT22;20658;45.630;8.886;2023-02-28T14:41:32;10.20;52.60
34406;DHT22;20658;45.630;8.886;2023-02-28T14:44:20;10.20;52.40
34406;DHT22;20658;45.630;8.886;2023-02-28T14:46:57;10.00;53.20
34406;DHT22;20658;45.630;8.886;2023-02-28T14:49:34;10.20;52.90
34406;DHT22;20658;45.630;8.886;2023-02-28T14:52:15;10.30;53.50
34406;DHT22;20658;45.630;8.886;2023-02-28T14:54:46;10.40;53.30
34406;DHT22;20658;45.630;8.886;2023-02-28T14:57:27;10.00;53.60
34406;DHT22;20658;45.630;8.886;2023-02-28T15:00:06;9.90;53.50
34406;DHT22;20658;45.630;8.886;2023-02-28T15:02:43;9.80;53.60
34406;DHT22;20658;45.630;8.886;2023-02-28T15:05:23;9.90;54.10
34406;DHT22;20658;45.630;8.886;2023-02-28T15:08:12;10.00;54.10
34406;DHT22;20658;45.630;8.886;2023-02-28T15:10:53;9.90;54.10
34406;DHT22;20658;45.630;8.886;2023-02-28T15:13:36;9.90;54.40
34406;DHT22;20658;45.630;8.886;2023-02-28T15:16:13;9.90;54.80
34406;DHT22;20658;45.630;8.886;2023-02-28T15:18:49;9.80;54.70
34406;DHT22;20658;45.630;8.886;2023-02-28T15:21:26;9.60;55.90
34406;DHT22;20658;45.630;8.886;2023-02-28T15:24:04;9.60;55.40
34406;DHT22;20658;45.630;8.886;2023-02-28T15:26:42;9.60;54.80
34406;DHT22;20658;45.630;8.886;2023-02-28T15:29:13;9.60;55.20
34406;DHT22;20658;45.630;8.886;2023-02-28T15:31:55;9.60;55.00
34406;DHT22;20658;45.630;8.886;2023-02-28T15:34:34;9.70;55.60
34406;DHT22;20658;45.630;8.886;2023-02-28T15:37:33;9.60;55.20
34406;DHT22;20658;45.630;8.886;2023-02-28T15:40:17;9.40;55.90
34406;DHT22;20658;45.630;8.886;2023-02-28T15:43:04;9.40;56.00
34406;DHT22;20658;45.630;8.886;2023-02-28T15:45:41;9.50;56.30
34406;DHT22;20658;45.630;8.886;2023-02-28T15:48:22;9.80;56.40
34406;DHT22;20658;45.630;8.886;2023-02-28T15:50:58;9.60;56.20
34406;DHT22;20658;45.630;8.886;2023-02-28T15:53:37;9.70;56.40
34406;DHT22;20658;45.630;8.886;2023-02-28T15:56:23;9.70;56.00
34406;DHT22;20658;45.630;8.886;2023-02-28T15:58:59;9.60;56.20
34406;DHT22;20658;45.630;8.886;2023-02-28T16:01:35;9.60;56.20
34406;DHT22;20658;45.630;8.886;2023-02-28T16:04:16;9.40;56.10
34406;DHT22;20658;45.630;8.886;2023-02-28T16:07:02;9.30;56.70
34406;DHT22;20658;45.630;8.886;2023-02-28T16:09:32;9.30;56.50
34406;DHT22;20658;45.630;8.886;2023-02-28T16:12:05;9.30;57.20
34406;DHT22;20658;45.630;8.886;2023-02-28T16:14:45;9.30;57.60
34406;DHT22;20658;45.630;8.886;2023-02-28T16:17:21;9.30;57.10
34406;DHT22;20658;45.630;8.886;2023-02-28T16:19:57;9.20;57.00
34406;DHT22;20658;45.630;8.886;2023-02-28T16:22:30;9.20;57.70
34406;DHT22;20658;45.630;8.886;2023-02-28T16:25:04;9.10;57.50
34406;DHT22;20658;45.630;8.886;2023-02-28T16:27:40;8.90;57.80
34406;DHT22;20658;45.630;8.886;2023-02-28T16:30:17;8.90;58.20
34406;DHT22;20658;45.630;8.886;2023-02-28T16:32:54;8.80;58.30
34406;DHT22;20658;45.630;8.886;2023-02-28T16:35:30;8.80;58.80
34406;DHT22;20658;45.630;8.886;2023-02-28T16:38:03;8.80;59.00
34406;DHT22;20658;45.630;8.886;2023-02-28T16:40:36;8.70;59.50
34406;DHT22;20658;45.630;8.886;2023-02-28T16:43:16;8.50;59.80
34406;DHT22;20658;45.630;8.886;2023-02-28T16:45:45;8.40;60.30
34406;DHT22;20658;45.630;8.886;2023-02-28T16:48:19;8.70;61.00
34406;DHT22;20658;45.630;8.886;2023-02-28T16:50:54;8.20;61.20
34406;DHT22;20658;45.630;8.886;2023-02-28T16:53:30;8.10;62.00
34406;DHT22;20658;45.630;8.886;2023-02-28T16:56:04;8.10;62.80
34406;DHT22;20658;45.630;8.886;2023-02-28T16:58:38;7.80;63.40
34406;DHT22;20658;45.630;8.886;2023-02-28T17:01:12;7.70;64.40
34406;DHT22;20658;45.630;8.886;2023-02-28T17:03:45;7.50;65.10
34406;DHT22;20658;45.630;8.886;2023-02-28T17:06:22;7.40;65.60
34406;DHT22;20658;45.630;8.886;2023-02-28T17:08:58;7.40;66.00
34406;DHT22;20658;45.630;8.886;2023-02-28T17:11:31;7.30;66.60
34406;DHT22;20658;45.630;8.886;2023-02-28T17:14:05;7.20;67.20
34406;DHT22;20658;45.630;8.886;2023-02-28T17:16:39;7.10;67.70
34406;DHT22;20658;45.630;8.886;2023-02-28T17:19:14;7.00;68.10
34406;DHT22;20658;45.630;8.886;2023-02-28T17:21:50;6.90;69.00
34406;DHT22;20658;45.630;8.886;2023-02-28T17:24:24;6.80;69.30
34406;DHT22;20658;45.630;8.886;2023-02-28T17:26:58;6.80;69.70
34406;DHT22;20658;45.630;8.886;2023-02-28T17:29:31;6.70;70.00